createdAt,value
2022-09-13T00:00:25.460Z,20.06
2022-09-13T00:05:28.698Z,20.52
2022-09-13T00:10:33.109Z,21.28
2022-09-13T00:15:36.799Z,21.15
2022-09-13T00:20:40.005Z,19.83
2022-09-13T00:25:42.664Z,20.49
2022-09-13T00:30:45.125Z,21.04
2022-09-13T00:35:47.537Z,20.83
2022-09-13T00:40:50.198Z,21.24
2022-09-13T00:45:53.044Z,20.32
2022-09-13T00:50:57.089Z,19.65
2022-09-13T00:55:59.504Z,19.46
2022-09-13T01:01:05.040Z,19.25
2022-09-13T01:06:20.747Z,19.87
2022-09-13T01:11:29.988Z,19.35
2022-09-13T01:16:32.873Z,18.94
2022-09-13T01:22:04.002Z,19.17
2022-09-13T01:27:39.044Z,20.11
2022-09-13T01:32:58.096Z,19.84
2022-09-13T01:38:18.667Z,19.83
2022-09-13T01:43:40.557Z,19.05
2022-09-13T01:49:14.977Z,20.09
2022-09-13T01:54:45.281Z,20.35
2022-09-13T02:00:04.779Z,18.96
2022-09-13T02:05:33.895Z,19.26
2022-09-13T02:10:42.477Z,18.82
2022-09-13T02:15:52.044Z,18.79
2022-09-13T02:21:02.393Z,18.45
2022-09-13T02:26:06.918Z,18.80
2022-09-13T02:31:11.779Z,18.96
2022-09-13T02:36:19.849Z,19.25
2022-09-13T02:41:28.588Z,19.65
2022-09-13T02:47:10.582Z,19.08
2022-09-13T02:52:43.722Z,19.79
2022-09-13T02:57:52.396Z,19.93
2022-09-13T03:02:57.066Z,19.17
2022-09-13T03:08:01.081Z,18.65
2022-09-13T03:13:06.216Z,19.79
2022-09-13T03:18:11.749Z,19.20
2022-09-13T03:23:37.176Z,19.78
2022-09-13T03:29:06.000Z,19.86
2022-09-13T03:34:16.975Z,19.94
2022-09-13T03:39:57.469Z,19.48
2022-09-13T03:45:01.558Z,19.04
2022-09-13T03:50:07.856Z,18.73
2022-09-13T03:55:14.618Z,19.81
2022-09-13T04:00:18.325Z,19.95
2022-09-13T04:05:20.729Z,19.33
2022-09-13T04:10:24.423Z,17.98
2022-09-13T04:15:33.978Z,17.64
2022-09-13T04:20:36.636Z,18.68
2022-09-13T04:25:40.702Z,17.81
2022-09-13T04:30:45.941Z,18.92
2022-09-13T04:35:48.372Z,19.34
2022-09-13T04:40:57.287Z,19.10
2022-09-13T04:46:02.740Z,20.28
2022-09-13T04:51:06.069Z,19.52
2022-09-13T04:56:10.581Z,19.82
2022-09-13T05:01:13.054Z,20.49
2022-09-13T05:06:20.068Z,20.23
2022-09-13T05:11:28.117Z,18.52
2022-09-13T05:16:33.012Z,17.82
2022-09-13T05:21:35.434Z,18.25
2022-09-13T05:26:37.979Z,19.51
2022-09-13T05:31:42.426Z,19.59
2022-09-13T05:36:45.172Z,19.43
2022-09-13T05:41:47.944Z,19.32
2022-09-13T05:46:50.451Z,19.72
2022-09-13T05:51:52.925Z,19.45
2022-09-13T05:56:57.672Z,19.07
2022-09-13T06:02:00.391Z,18.70
2022-09-13T06:07:02.957Z,19.39
2022-09-13T06:12:05.575Z,20.43
2022-09-13T06:17:08.232Z,21.02
2022-09-13T06:22:10.865Z,21.36
2022-09-13T06:27:13.266Z,20.97
2022-09-13T06:32:15.737Z,19.92
2022-09-13T06:37:18.166Z,19.53
2022-09-13T06:42:20.826Z,20.44
2022-09-13T06:47:23.386Z,21.22
2022-09-13T06:52:25.973Z,21.53
2022-09-13T06:57:31.295Z,21.82
2022-09-13T07:02:33.748Z,21.89
2022-09-13T07:07:36.191Z,22.08
2022-09-13T07:12:41.496Z,21.71
2022-09-13T07:17:43.961Z,22.53
2022-09-13T07:22:46.483Z,22.52
2022-09-13T07:27:48.949Z,22.36
2022-09-13T07:37:53.660Z,21.66
2022-09-13T07:42:56.348Z,21.90
2022-09-13T07:47:58.761Z,21.46
2022-09-13T07:53:01.267Z,22.23
2022-09-13T07:58:03.702Z,23.73
2022-09-13T08:03:06.232Z,23.59
2022-09-13T08:08:08.830Z,24.99
2022-09-13T08:13:11.280Z,25.66
2022-09-13T08:18:13.814Z,25.34
2022-09-13T08:23:16.228Z,24.79
2022-09-13T08:28:26.834Z,24.82
2022-09-13T08:33:30.072Z,25.39
2022-09-13T08:38:32.849Z,25.50
2022-09-13T08:43:56.983Z,26.89
2022-09-13T08:49:06.738Z,27.75
2022-09-13T08:54:13.620Z,27.04
2022-09-13T08:59:37.693Z,27.31
2022-09-13T09:04:43.543Z,26.91
2022-09-13T09:10:00.198Z,28.56
2022-09-13T09:15:24.105Z,30.12
2022-09-13T09:20:43.039Z,28.25
2022-09-13T09:25:46.373Z,27.45
2022-09-13T09:30:51.852Z,28.22
2022-09-13T09:36:17.130Z,27.79
2022-09-13T09:41:27.469Z,27.72
2022-09-13T09:46:34.137Z,28.46
2022-09-13T09:51:36.726Z,28.97
2022-09-13T09:56:54.803Z,28.74
2022-09-13T10:01:58.639Z,28.45
2022-09-13T10:07:32.988Z,27.30
2022-09-13T10:12:38.284Z,26.62
2022-09-13T10:17:44.020Z,28.36
2022-09-13T10:23:06.455Z,29.87
2022-09-13T10:28:18.708Z,30.82
2022-09-13T10:33:39.471Z,32.87
2022-09-13T10:38:51.996Z,30.85
2022-09-13T10:43:58.935Z,32.54
2022-09-13T10:49:01.706Z,33.87
2022-09-13T10:54:18.391Z,33.71
2022-09-13T10:59:24.923Z,33.14
2022-09-13T11:04:56.825Z,31.80
2022-09-13T11:10:21.002Z,30.80
2022-09-13T11:15:35.367Z,29.62
2022-09-13T11:20:59.399Z,28.28
2022-09-13T11:26:20.810Z,28.09
2022-09-13T11:31:35.044Z,29.54
2022-09-13T11:36:56.044Z,29.34
2022-09-13T11:42:16.728Z,28.95
2022-09-13T11:47:19.117Z,27.93
2022-09-13T11:52:51.445Z,27.29
2022-09-13T11:57:58.161Z,27.13
2022-09-13T12:03:19.350Z,27.32
2022-09-13T12:08:30.864Z,26.73
2022-09-13T12:13:42.480Z,26.67
2022-09-13T12:18:50.306Z,26.71
2022-09-13T12:24:06.650Z,26.49
2022-09-13T12:29:15.072Z,26.43
2022-09-13T12:34:28.435Z,26.10
2022-09-13T12:39:48.889Z,27.62
2022-09-13T12:45:00.878Z,28.46
2022-09-13T12:56:05.824Z,27.30
2022-09-13T13:01:10.425Z,27.23
2022-09-13T13:06:48.230Z,27.39
2022-09-13T13:11:52.179Z,28.23
2022-09-13T13:16:54.974Z,29.03
2022-09-13T13:22:36.038Z,28.79
2022-09-13T13:27:44.978Z,32.04
2022-09-13T13:33:15.170Z,31.22
2022-09-13T13:38:23.782Z,30.10
2022-09-13T13:43:30.764Z,32.84
2022-09-13T13:48:41.936Z,32.83
2022-09-13T13:53:51.927Z,29.73
2022-09-13T13:59:30.852Z,27.78
2022-09-13T14:04:59.118Z,27.60
2022-09-13T14:10:14.488Z,27.77
2022-09-13T14:15:16.899Z,27.73
2022-09-13T14:20:21.260Z,28.36
2022-09-13T14:25:25.675Z,27.69
2022-09-13T14:30:39.413Z,27.64
2022-09-13T14:35:42.455Z,29.46
2022-09-13T14:40:53.297Z,30.52
2022-09-13T14:46:07.413Z,29.46
2022-09-13T14:51:25.240Z,29.22
2022-09-13T14:56:41.466Z,28.14
2022-09-13T15:01:44.084Z,28.15
2022-09-13T15:06:46.879Z,26.95
2022-09-13T15:11:57.077Z,26.55
2022-09-13T15:17:08.105Z,26.59
2022-09-13T15:22:18.231Z,26.81
2022-09-13T15:27:23.717Z,26.03
2022-09-13T15:32:41.631Z,25.73
2022-09-13T15:37:45.393Z,25.90
2022-09-13T15:42:51.893Z,25.78
2022-09-13T15:47:54.351Z,25.79
2022-09-13T15:52:58.462Z,25.54
2022-09-13T15:58:00.922Z,26.08
2022-09-13T16:03:03.447Z,26.35
2022-09-13T16:08:06.175Z,26.30
2022-09-13T16:13:09.076Z,26.15
2022-09-13T16:18:11.856Z,26.02
2022-09-13T16:23:14.333Z,25.97
2022-09-13T16:28:21.188Z,25.84
2022-09-13T16:33:23.694Z,25.78
2022-09-13T16:38:26.146Z,25.85
2022-09-13T16:43:28.852Z,26.06
2022-09-13T16:48:31.280Z,26.15
2022-09-13T16:53:35.665Z,26.07
2022-09-13T16:58:40.001Z,26.10
2022-09-13T17:03:43.309Z,26.00
2022-09-13T17:08:51.139Z,25.94
2022-09-13T17:13:54.947Z,25.93
2022-09-13T17:18:59.830Z,25.86
2022-09-13T17:24:03.015Z,25.72
2022-09-13T17:29:05.707Z,25.64
2022-09-13T17:34:08.325Z,25.56
2022-09-13T17:39:11.183Z,25.45
2022-09-13T17:44:13.682Z,25.43
2022-09-13T17:49:16.391Z,25.34
2022-09-13T17:54:18.889Z,25.24
2022-09-13T17:59:22.487Z,24.94
2022-09-13T18:04:25.051Z,25.02
2022-09-13T18:09:27.653Z,25.02
2022-09-13T18:14:30.266Z,25.02
2022-09-13T18:19:45.932Z,25.02
2022-09-13T18:24:49.037Z,24.96
2022-09-13T18:29:51.522Z,24.93
2022-09-13T18:34:54.021Z,24.36
2022-09-13T18:39:56.574Z,24.08
2022-09-13T18:44:59.095Z,24.39
2022-09-13T18:50:02.093Z,24.53
2022-09-13T18:55:04.724Z,24.59
2022-09-13T19:00:07.877Z,24.72
2022-09-13T19:05:11.468Z,24.68
2022-09-13T19:10:16.110Z,24.75
2022-09-13T19:15:19.023Z,24.79
2022-09-13T19:20:23.144Z,24.34
2022-09-13T19:25:30.368Z,24.49
2022-09-13T19:30:35.666Z,24.60
2022-09-13T19:35:38.444Z,24.63
2022-09-13T19:40:41.199Z,24.65
2022-09-13T19:45:43.689Z,24.03
2022-09-13T19:50:46.196Z,24.03
2022-09-13T19:55:49.030Z,24.19
2022-09-13T20:01:00.562Z,24.33
2022-09-13T20:06:08.738Z,24.43
2022-09-13T20:11:16.220Z,24.39
2022-09-13T20:16:24.750Z,24.02
2022-09-13T20:21:29.843Z,24.16
2022-09-13T20:26:35.827Z,24.28
2022-09-13T20:31:38.430Z,24.20
2022-09-13T20:36:44.163Z,24.37
2022-09-13T20:41:49.383Z,24.36
2022-09-13T20:46:52.123Z,24.32
2022-09-13T20:51:54.814Z,24.26
2022-09-13T20:56:58.298Z,23.81
2022-09-13T21:02:00.969Z,23.91
2022-09-13T21:07:22.285Z,24.20
2022-09-13T21:12:24.778Z,24.02
2022-09-13T21:17:27.421Z,23.84
2022-09-13T21:22:30.004Z,24.16
2022-09-13T21:27:32.560Z,24.22
2022-09-13T21:32:35.040Z,23.64
2022-09-13T21:37:37.477Z,23.12
2022-09-13T21:42:40.100Z,23.00
2022-09-13T21:47:42.588Z,23.68
2022-09-13T21:52:45.088Z,23.85
2022-09-13T21:57:47.477Z,23.92
2022-09-13T22:02:49.951Z,24.07
2022-09-13T22:07:52.576Z,24.10
2022-09-13T22:12:55.084Z,23.79
2022-09-13T22:17:57.568Z,23.12
2022-09-13T22:22:59.986Z,22.61
2022-09-13T22:28:02.849Z,22.67
2022-09-13T22:33:05.267Z,23.36
2022-09-13T22:38:08.346Z,23.36
2022-09-13T22:43:11.091Z,23.57
2022-09-13T22:48:14.549Z,23.69
2022-09-13T22:53:16.953Z,23.60
2022-09-13T22:58:19.785Z,22.85
2022-09-13T23:03:22.246Z,22.94
2022-09-13T23:08:24.844Z,23.44
2022-09-13T23:13:27.244Z,23.65
2022-09-13T23:18:31.032Z,23.72
2022-09-13T23:23:33.831Z,23.76
2022-09-13T23:28:37.817Z,23.06
2022-09-13T23:33:42.888Z,23.25
2022-09-13T23:38:53.820Z,23.42
2022-09-13T23:43:56.429Z,23.17
2022-09-13T23:48:58.947Z,22.60
2022-09-13T23:54:01.888Z,22.85
2022-09-13T23:59:05.881Z,23.15
